Time,TemperatureF,DewpointF,PressureIn,WindDirection,WindDirectionDegrees,WindSpeedMPH,WindSpeedGustMPH,Humidity,HourlyPrecipIn,Conditions,Clouds,dailyrainin,SoftwareType,DateUTC
2013-05-23 00:01:00,61.5,60.4,29.95,South,185,11.0,14.0,96,0.00,,,0.00,meteohub,2013-05-23 04:01:00,
2013-05-23 00:02:00,61.5,60.4,29.95,South,189,8.0,14.0,96,0.00,,,0.00,meteohub,2013-05-23 04:02:00,
2013-05-23 00:07:00,61.3,60.3,29.95,SSW,196,13.0,14.0,96,0.00,,,0.00,meteohub,2013-05-23 04:07:00,
2013-05-23 00:12:00,61.5,60.4,29.95,SSW,204,12.0,14.0,96,0.00,,,0.00,meteohub,2013-05-23 04:12:00,
2013-05-23 00:17:00,61.5,60.4,29.96,SSW,206,9.0,14.0,96,0.00,,,0.00,meteohub,2013-05-23 04:17:00,
2013-05-23 00:22:00,61.5,60.4,29.96,SW,223,8.0,17.0,96,0.00,,,0.00,meteohub,2013-05-23 04:22:00,
2013-05-23 00:27:00,61.5,60.4,29.96,SSW,196,13.0,17.0,96,0.00,,,0.00,meteohub,2013-05-23 04:27:00,
2013-05-23 00:32:00,61.5,60.4,29.96,SSW,196,16.0,17.0,96,0.00,,,0.00,meteohub,2013-05-23 04:32:00,
2013-05-23 00:37:00,61.5,60.4,29.96,SSE,163,8.0,17.0,96,0.00,,,0.00,meteohub,2013-05-23 04:37:00,
2013-05-23 00:42:00,61.5,60.4,29.95,South,190,10.0,17.0,96,0.00,,,0.00,meteohub,2013-05-23 04:42:00,
2013-05-23 00:47:00,61.5,60.4,29.95,SW,228,9.0,18.0,96,0.00,,,0.00,meteohub,2013-05-23 04:47:00,
2013-05-23 00:52:00,61.3,60.3,29.95,SW,215,12.0,18.0,96,0.00,,,0.00,meteohub,2013-05-23 04:52:00,
2013-05-23 00:57:00,61.3,60.3,29.95,SSW,202,12.0,18.0,96,0.00,,,0.00,meteohub,2013-05-23 04:57:00,
2013-05-23 01:02:00,61.3,60.3,29.95,SW,219,11.0,18.0,96,0.00,,,0.00,meteohub,2013-05-23 05:02:00,
2013-05-23 01:07:00,61.3,60.3,29.95,SSW,211,9.0,18.0,96,0.00,,,0.00,meteohub,2013-05-23 05:07:00,
2013-05-23 01:12:00,61.3,60.3,29.95,SSW,209,16.0,16.0,96,0.00,,,0.00,meteohub,2013-05-23 05:12:00,
2013-05-23 01:17:00,61.5,60.4,29.95,SSW,212,12.0,16.0,96,0.00,,,0.00,meteohub,2013-05-23 05:17:00,
2013-05-23 01:22:00,61.5,60.4,29.95,SW,219,10.0,16.0,96,0.00,,,0.00,meteohub,2013-05-23 05:22:00,
2013-05-23 01:27:00,61.5,60.4,29.95,SSW,213,9.0,16.0,96,0.00,,,0.00,meteohub,2013-05-23 05:27:00,
2013-05-23 01:32:00,61.5,60.4,29.95,SW,229,14.0,16.0,96,0.00,,,0.00,meteohub,2013-05-23 05:32:00,
2013-05-23 01:37:00,61.5,60.4,29.95,SW,225,11.0,14.0,96,0.00,,,0.00,meteohub,2013-05-23 05:37:00,
2013-05-23 01:42:00,61.7,60.6,29.95,SW,217,11.0,14.0,96,0.00,,,0.00,meteohub,2013-05-23 05:42:00,
2013-05-23 01:47:00,61.7,60.6,29.95,SW,220,10.0,14.0,96,0.00,,,0.00,meteohub,2013-05-23 05:47:00,
2013-05-23 01:52:00,61.7,60.6,29.94,SSW,210,13.0,14.0,96,0.00,,,0.00,meteohub,2013-05-23 05:52:00,
2013-05-23 01:57:00,61.9,60.8,29.94,SSW,211,13.0,16.0,96,0.00,,,0.00,meteohub,2013-05-23 05:57:00,
2013-05-23 02:02:00,61.9,60.8,29.94,SW,216,10.0,16.0,96,0.00,,,0.00,meteohub,2013-05-23 06:02:00,
2013-05-23 02:07:00,61.9,60.8,29.94,SSW,200,12.0,16.0,96,0.00,,,0.00,meteohub,2013-05-23 06:07:00,
2013-05-23 02:12:00,61.9,60.8,29.94,SSW,209,14.0,16.0,96,0.00,,,0.00,meteohub,2013-05-23 06:12:00,
2013-05-23 02:17:00,62.1,61.0,29.94,SSW,200,11.0,20.0,96,0.00,,,0.00,meteohub,2013-05-23 06:17:00,
2013-05-23 02:22:00,62.1,61.2,29.94,SSW,198,9.0,20.0,97,0.00,,,0.00,meteohub,2013-05-23 06:22:00,
2013-05-23 02:27:00,62.2,61.2,29.94,SSW,200,9.0,20.0,96,0.00,,,0.00,meteohub,2013-05-23 06:27:00,
2013-05-23 02:32:00,62.4,61.5,29.94,SW,219,14.0,20.0,97,0.00,,,0.00,meteohub,2013-05-23 06:32:00,
2013-05-23 02:37:00,62.8,61.9,29.94,SW,224,15.0,21.0,97,0.00,,,0.00,meteohub,2013-05-23 06:37:00,
2013-05-23 02:42:00,63.0,62.1,29.94,South,190,20.0,21.0,97,0.00,,,0.00,meteohub,2013-05-23 06:42:00,
2013-05-23 02:47:00,63.5,62.6,29.93,SW,223,16.0,21.0,97,0.00,,,0.00,meteohub,2013-05-23 06:47:00,
2013-05-23 02:52:00,63.1,62.1,29.94,SSW,209,15.0,21.0,96,0.00,,,0.00,meteohub,2013-05-23 06:52:00,
2013-05-23 02:57:00,63.0,61.9,29.94,SW,219,11.0,24.0,96,0.00,,,0.00,meteohub,2013-05-23 06:57:00,
2013-05-23 03:02:00,63.0,61.9,29.94,SSW,211,5.0,24.0,96,0.00,,,0.00,meteohub,2013-05-23 07:02:00,
2013-05-23 03:07:00,62.8,61.7,29.94,SW,217,13.0,24.0,96,0.00,,,0.00,meteohub,2013-05-23 07:07:00,
2013-05-23 03:12:00,62.8,61.7,29.94,SSW,213,9.0,24.0,96,0.00,,,0.00,meteohub,2013-05-23 07:12:00,
2013-05-23 03:17:00,62.6,61.5,29.93,SSW,199,12.0,24.0,96,0.00,,,0.00,meteohub,2013-05-23 07:17:00,
2013-05-23 03:22:00,62.4,61.3,29.93,South,190,6.0,16.0,96,0.00,,,0.00,meteohub,2013-05-23 07:22:00,
2013-05-23 03:27:00,62.2,61.2,29.93,SSW,208,10.0,16.0,96,0.00,,,0.00,meteohub,2013-05-23 07:27:00,
2013-05-23 03:33:00,62.2,61.2,29.93,South,190,9.0,16.0,96,0.00,,,0.00,meteohub,2013-05-23 07:33:00,
2013-05-23 03:38:00,62.2,61.2,29.93,South,178,16.0,23.0,96,0.00,,,0.00,meteohub,2013-05-23 07:38:00,
2013-05-23 03:43:00,62.2,61.2,29.94,SSW,200,15.0,23.0,96,0.00,,,0.00,meteohub,2013-05-23 07:43:00,
2013-05-23 03:48:00,62.2,61.2,29.94,SSW,192,21.0,23.0,96,0.00,,,0.00,meteohub,2013-05-23 07:48:00,
2013-05-23 03:53:00,62.4,61.3,29.94,SSW,199,19.0,23.0,96,0.00,,,0.00,meteohub,2013-05-23 07:53:00,
2013-05-23 03:58:00,62.4,61.3,29.94,SSW,198,13.0,24.0,96,0.00,,,0.00,meteohub,2013-05-23 07:58:00,
2013-05-23 04:03:00,62.6,61.5,29.93,SSW,200,21.0,24.0,96,0.00,,,0.00,meteohub,2013-05-23 08:03:00,
2013-05-23 04:08:00,62.8,61.7,29.93,SSW,210,19.0,24.0,96,0.00,,,0.00,meteohub,2013-05-23 08:08:00,
2013-05-23 04:13:00,62.6,61.5,29.94,SSW,201,22.0,24.0,96,0.00,,,0.00,meteohub,2013-05-23 08:13:00,
2013-05-23 12:14:00,63.0,62.1,29.97,SSW,192,17.0,19.0,97,0.00,,,0.31,meteohub,2013-05-23 16:14:00,
2013-05-23 15:17:00,64.0,62.2,29.92,SSE,147,18.0,25.0,94,0.00,,,0.31,meteohub,2013-05-23 19:17:00,